createdAt,value
2019-06-15T00:00:36.126Z,5.00
2019-06-15T00:03:04.080Z,4.90
2019-06-15T00:05:31.162Z,4.33
2019-06-15T00:07:58.362Z,4.50
2019-06-15T00:10:25.564Z,4.83
2019-06-15T00:12:52.712Z,4.60
2019-06-15T00:15:20.020Z,4.20
2019-06-15T00:17:47.250Z,5.10
2019-06-15T00:20:14.594Z,6.03
2019-06-15T00:22:41.740Z,4.97
2019-06-15T00:25:09.176Z,4.57
2019-06-15T00:27:36.248Z,5.30
2019-06-15T00:30:04.201Z,5.50
2019-06-15T00:32:31.512Z,4.40
2019-06-15T00:34:58.688Z,4.70
2019-06-15T00:37:25.869Z,4.53
2019-06-15T00:39:53.144Z,4.87
2019-06-15T00:42:20.907Z,5.93
2019-06-15T00:44:48.089Z,4.43
2019-06-15T00:47:15.289Z,4.87
2019-06-15T00:49:42.568Z,4.50
2019-06-15T00:52:09.756Z,5.20
2019-06-15T00:54:49.701Z,4.90
2019-06-15T00:57:06.004Z,5.03
2019-06-15T00:59:33.308Z,4.87
2019-06-15T01:02:00.828Z,5.43
2019-06-15T01:04:28.225Z,5.20
2019-06-15T01:06:55.428Z,5.07
2019-06-15T01:09:22.505Z,4.67
2019-06-15T01:11:49.659Z,4.40
2019-06-15T01:14:17.050Z,4.53
2019-06-15T01:16:44.272Z,5.50
2019-06-15T01:19:11.447Z,5.20
2019-06-15T01:21:38.660Z,6.33
2019-06-15T01:24:06.278Z,5.63
2019-06-15T01:26:33.431Z,5.67
2019-06-15T01:29:00.620Z,5.03
2019-06-15T01:31:28.435Z,5.63
2019-06-15T01:33:55.606Z,5.97
2019-06-15T01:36:22.792Z,4.90
2019-06-15T01:38:50.112Z,4.50
2019-06-15T01:41:17.179Z,5.60
2019-06-15T01:43:44.967Z,5.40
2019-06-15T01:46:12.138Z,5.97
2019-06-15T01:48:39.288Z,5.30
2019-06-15T01:51:06.362Z,5.53
2019-06-15T01:53:33.584Z,5.97
2019-06-15T01:56:00.787Z,6.57
2019-06-15T01:58:28.409Z,6.37
2019-06-15T02:00:55.592Z,5.90
2019-06-15T02:03:23.109Z,7.73
2019-06-15T02:05:50.262Z,7.17
2019-06-15T02:08:18.929Z,6.63
2019-06-15T02:10:46.168Z,6.60
2019-06-15T02:13:13.415Z,6.83
2019-06-15T02:15:40.709Z,6.13
2019-06-15T02:18:07.899Z,7.93
2019-06-15T02:20:35.129Z,6.47
2019-06-15T02:23:02.528Z,6.80
2019-06-15T02:25:35.930Z,7.17
2019-06-15T02:27:59.034Z,6.73
2019-06-15T02:30:27.910Z,7.37
2019-06-15T02:32:56.181Z,6.53
2019-06-15T02:35:23.363Z,6.83
2019-06-15T02:37:50.571Z,6.90
2019-06-15T02:40:18.254Z,6.33
2019-06-15T02:42:45.782Z,6.80
2019-06-15T02:45:12.967Z,6.43
2019-06-15T02:47:40.053Z,6.90
2019-06-15T02:50:07.233Z,6.53
2019-06-15T02:52:34.441Z,7.40
2019-06-15T02:55:01.644Z,6.60
2019-06-15T02:57:29.315Z,7.23
2019-06-15T02:59:56.802Z,7.03
2019-06-15T03:02:24.195Z,7.33
2019-06-15T03:04:51.726Z,8.30
2019-06-15T03:07:18.927Z,7.60
2019-06-15T03:09:46.486Z,8.20
2019-06-15T03:12:14.156Z,7.80
2019-06-15T03:14:42.326Z,7.33
2019-06-15T03:17:09.484Z,7.83
2019-06-15T03:19:36.700Z,7.17
2019-06-15T03:22:06.495Z,8.37
2019-06-15T03:24:33.035Z,9.20
2019-06-15T03:27:00.219Z,8.83
2019-06-15T03:29:27.530Z,8.73
2019-06-15T03:31:54.688Z,8.80
2019-06-15T03:34:21.864Z,9.67
2019-06-15T03:36:49.086Z,8.50
2019-06-15T03:39:16.244Z,7.70
2019-06-15T03:41:43.423Z,9.13
2019-06-15T03:44:10.939Z,8.97
2019-06-15T03:46:38.279Z,7.40
2019-06-15T03:49:05.833Z,6.87
2019-06-15T03:51:33.042Z,8.10
2019-06-15T03:54:00.532Z,6.60
2019-06-15T03:56:27.608Z,6.80
2019-06-15T03:58:54.787Z,6.50
2019-06-15T04:01:35.230Z,6.60
2019-06-15T04:04:02.732Z,6.20
2019-06-15T04:06:29.939Z,6.07
2019-06-15T04:08:57.124Z,6.57
2019-06-15T04:11:24.445Z,8.20
2019-06-15T04:13:51.634Z,6.10
2019-06-15T04:16:19.112Z,6.60
2019-06-15T04:18:46.319Z,5.90
2019-06-15T04:21:13.480Z,6.13
2019-06-15T04:23:40.680Z,8.17
2019-06-15T04:26:07.866Z,6.23
2019-06-15T04:28:35.065Z,5.50
2019-06-15T04:31:02.274Z,5.00
2019-06-15T04:33:29.456Z,5.30
2019-06-15T04:35:56.508Z,6.10
2019-06-15T04:38:23.950Z,5.77
2019-06-15T04:40:51.129Z,4.57
2019-06-15T04:43:18.272Z,5.53
2019-06-15T04:45:45.547Z,4.30
2019-06-15T04:48:12.838Z,5.17
2019-06-15T04:50:39.970Z,5.20
2019-06-15T04:53:07.120Z,4.53
2019-06-15T04:55:34.643Z,4.97
2019-06-15T04:58:01.804Z,4.10
2019-06-15T05:00:29.075Z,4.50
2019-06-15T05:02:56.287Z,4.70
2019-06-15T05:05:23.464Z,3.87
2019-06-15T05:07:50.624Z,4.00
2019-06-15T05:10:17.862Z,3.63
2019-06-15T05:12:45.028Z,3.30
2019-06-15T05:15:12.224Z,4.33
2019-06-15T05:17:39.313Z,3.40
2019-06-15T05:20:07.078Z,3.70
2019-06-15T05:22:34.332Z,3.83
2019-06-15T05:25:01.470Z,3.10
2019-06-15T05:27:28.636Z,3.67
2019-06-15T05:29:56.655Z,3.53
2019-06-15T05:32:24.462Z,4.30
2019-06-15T05:34:52.556Z,3.40
2019-06-15T05:37:19.849Z,2.57
2019-06-15T05:39:47.037Z,3.73
2019-06-15T05:42:15.286Z,2.90
2019-06-15T05:44:42.498Z,2.80
2019-06-15T05:47:09.708Z,2.97
2019-06-15T05:49:36.980Z,3.00
2019-06-15T05:52:04.192Z,3.50
2019-06-15T05:54:31.397Z,3.23
2019-06-15T05:56:58.576Z,3.47
2019-06-15T05:59:26.234Z,2.87
2019-06-15T06:01:53.361Z,3.40
2019-06-15T06:04:20.593Z,3.30
2019-06-15T06:06:47.872Z,4.67
2019-06-15T06:09:15.182Z,3.63
2019-06-15T06:11:43.487Z,4.00
2019-06-15T06:14:11.785Z,3.50
2019-06-15T06:16:39.040Z,3.47
2019-06-15T06:19:06.411Z,3.27
2019-06-15T06:21:33.846Z,3.20
2019-06-15T06:24:01.080Z,3.30
2019-06-15T06:26:28.431Z,2.73
2019-06-15T06:28:57.519Z,4.13
2019-06-15T06:31:24.750Z,3.23
2019-06-15T06:33:51.999Z,2.83
2019-06-15T06:36:19.179Z,3.27
2019-06-15T06:38:46.688Z,2.80
2019-06-15T06:41:13.845Z,2.20
2019-06-15T06:43:41.039Z,2.90
2019-06-15T06:46:08.249Z,2.37
2019-06-15T06:48:35.452Z,7.80
2019-06-15T06:51:02.577Z,2.00
2019-06-15T06:53:29.919Z,2.20
2019-06-15T06:55:57.139Z,2.10
2019-06-15T06:58:24.320Z,2.00
2019-06-15T07:00:51.512Z,2.10
2019-06-15T07:03:18.857Z,2.20
2019-06-15T07:05:45.913Z,2.30
2019-06-15T07:08:13.873Z,1.83
2019-06-15T07:10:41.071Z,1.70
2019-06-15T07:13:08.248Z,1.90
2019-06-15T07:15:35.876Z,1.52
2019-06-15T07:18:02.932Z,1.85
2019-06-15T07:20:30.021Z,1.80
2019-06-15T07:22:57.211Z,2.02
2019-06-15T07:25:24.681Z,1.77
2019-06-15T07:28:06.945Z,2.25
2019-06-15T07:30:21.056Z,2.37
2019-06-15T07:32:48.205Z,2.00
2019-06-15T07:35:15.589Z,1.62
2019-06-15T07:37:42.893Z,1.47
2019-06-15T07:40:10.595Z,2.85
2019-06-15T07:42:39.458Z,1.80
2019-06-15T07:45:07.499Z,2.05
2019-06-15T07:47:34.706Z,3.20
2019-06-15T07:50:01.982Z,2.20
2019-06-15T07:52:29.458Z,1.77
2019-06-15T07:54:56.627Z,1.20
2019-06-15T07:57:23.819Z,2.00
2019-06-15T07:59:51.480Z,3.27
2019-06-15T08:02:18.672Z,1.90
2019-06-15T08:04:45.896Z,1.37
2019-06-15T08:07:13.182Z,2.10
2019-06-15T08:09:40.708Z,2.43
2019-06-15T08:12:07.857Z,3.33
2019-06-15T08:14:35.092Z,1.90
2019-06-15T08:17:02.360Z,2.30
2019-06-15T08:19:29.559Z,2.07
2019-06-15T08:21:56.938Z,2.17
2019-06-15T08:24:24.136Z,1.73
2019-06-15T08:26:51.500Z,1.90
2019-06-15T08:29:18.706Z,1.63
2019-06-15T08:31:45.998Z,1.40
2019-06-15T08:34:13.175Z,1.87
2019-06-15T08:36:41.118Z,2.22
2019-06-15T08:39:08.279Z,2.20
2019-06-15T08:41:35.462Z,4.10
2019-06-15T08:44:03.484Z,2.43
2019-06-15T08:46:30.754Z,3.80
2019-06-15T08:48:58.047Z,1.57
2019-06-15T08:51:25.402Z,3.03
2019-06-15T08:53:52.613Z,1.90
2019-06-15T08:56:19.830Z,2.30
2019-06-15T08:58:55.497Z,1.90
2019-06-15T09:01:16.618Z,1.70
2019-06-15T09:03:44.264Z,1.87
2019-06-15T09:06:11.532Z,1.50
2019-06-15T09:08:38.891Z,1.50
2019-06-15T09:11:06.096Z,1.60
2019-06-15T09:13:33.579Z,1.37
2019-06-15T09:16:00.896Z,2.00
2019-06-15T09:18:28.095Z,1.50
2019-06-15T09:20:55.302Z,1.93
2019-06-15T09:23:22.702Z,1.30
2019-06-15T09:25:49.924Z,1.83
2019-06-15T09:28:17.403Z,1.40
2019-06-15T09:30:45.172Z,2.13
2019-06-15T09:33:12.498Z,1.30
2019-06-15T09:35:39.696Z,1.70
2019-06-15T09:38:06.905Z,2.93
2019-06-15T09:40:34.245Z,6.43
2019-06-15T09:43:01.628Z,1.43
2019-06-15T09:45:32.781Z,2.00
2019-06-15T09:47:58.271Z,1.53
2019-06-15T09:50:25.470Z,2.10
2019-06-15T09:52:52.675Z,1.40
2019-06-15T09:55:20.117Z,2.83
2019-06-15T09:57:47.716Z,1.60
2019-06-15T10:00:14.990Z,1.37
2019-06-15T10:02:42.528Z,1.83
2019-06-15T10:05:10.126Z,1.97
2019-06-15T10:07:37.766Z,2.20
2019-06-15T10:10:05.805Z,2.43
2019-06-15T10:12:33.092Z,1.70
2019-06-15T10:15:00.331Z,5.73
2019-06-15T10:17:27.414Z,1.60
2019-06-15T10:19:54.650Z,2.37
2019-06-15T10:22:21.805Z,2.13
2019-06-15T10:24:49.042Z,1.50
2019-06-15T10:27:16.371Z,1.83
2019-06-15T10:29:43.458Z,3.53
2019-06-15T10:32:10.658Z,1.50
2019-06-15T10:34:37.877Z,1.80
2019-06-15T10:37:05.184Z,1.50
2019-06-15T10:39:32.480Z,1.50
2019-06-15T10:42:00.024Z,1.70
2019-06-15T10:44:27.801Z,2.50
2019-06-15T10:46:55.151Z,1.60
2019-06-15T10:49:22.789Z,1.50
2019-06-15T10:51:49.980Z,1.90
2019-06-15T10:54:17.544Z,1.50
2019-06-15T10:56:45.322Z,2.33
2019-06-15T10:59:15.999Z,1.63
2019-06-15T11:01:43.267Z,2.17
2019-06-15T11:04:10.456Z,2.07
2019-06-15T11:06:37.751Z,1.80
2019-06-15T11:09:07.429Z,1.77
2019-06-15T11:11:34.720Z,1.70
2019-06-15T11:14:02.149Z,1.47
2019-06-15T11:16:29.391Z,1.43
2019-06-15T11:18:56.580Z,1.50
2019-06-15T11:21:23.737Z,1.50
2019-06-15T11:23:50.971Z,1.50
2019-06-15T11:26:18.165Z,1.40
2019-06-15T11:28:45.553Z,1.37
2019-06-15T11:31:12.720Z,1.40
2019-06-15T11:33:40.031Z,1.77
2019-06-15T11:36:07.194Z,1.47
2019-06-15T11:38:34.389Z,1.60
2019-06-15T11:41:02.294Z,1.70
2019-06-15T11:43:29.524Z,1.60
2019-06-15T11:45:56.952Z,1.50
2019-06-15T11:48:24.555Z,2.00
2019-06-15T11:50:51.574Z,2.10
2019-06-15T11:53:18.836Z,1.80
2019-06-15T11:55:46.602Z,1.70
2019-06-15T11:58:13.801Z,1.40
2019-06-15T12:00:40.958Z,1.57
2019-06-15T12:03:08.288Z,1.77
2019-06-15T12:05:35.488Z,1.70
2019-06-15T12:08:02.836Z,2.17
2019-06-15T12:10:30.328Z,1.60
2019-06-15T12:12:57.516Z,1.70
2019-06-15T12:15:24.863Z,1.70
2019-06-15T12:17:52.155Z,1.77
2019-06-15T12:20:19.403Z,1.70
2019-06-15T12:22:47.363Z,1.80
2019-06-15T12:25:15.213Z,1.50
2019-06-15T12:27:42.452Z,2.07
2019-06-15T12:30:11.853Z,1.90
2019-06-15T12:32:39.114Z,1.87
2019-06-15T12:35:06.806Z,1.77
2019-06-15T12:37:34.418Z,1.40
2019-06-15T12:40:01.743Z,1.60
2019-06-15T12:42:29.057Z,2.00
2019-06-15T12:44:56.355Z,1.73
2019-06-15T12:47:23.976Z,1.60
2019-06-15T12:49:51.309Z,2.20
2019-06-15T12:52:18.506Z,1.90
2019-06-15T12:54:45.706Z,1.90
2019-06-15T12:57:12.864Z,1.80
2019-06-15T12:59:40.595Z,1.87
2019-06-15T13:02:07.868Z,2.03
2019-06-15T13:04:35.039Z,1.47
2019-06-15T13:07:02.308Z,1.50
2019-06-15T13:09:29.402Z,1.50
2019-06-15T13:11:56.651Z,1.80
2019-06-15T13:14:23.849Z,1.50
2019-06-15T13:16:51.538Z,1.60
2019-06-15T13:19:19.432Z,1.90
2019-06-15T13:21:46.752Z,1.60
2019-06-15T13:24:14.497Z,1.70
2019-06-15T13:26:41.663Z,2.17
2019-06-15T13:29:08.922Z,1.60
2019-06-15T13:31:36.630Z,1.50
2019-06-15T13:34:04.003Z,1.87
2019-06-15T13:36:31.268Z,1.67
2019-06-15T13:38:58.482Z,2.57
2019-06-15T13:41:25.746Z,1.50
2019-06-15T13:43:52.910Z,1.40
2019-06-15T13:46:21.127Z,1.50
2019-06-15T13:48:48.412Z,1.40
2019-06-15T13:51:15.981Z,1.70
2019-06-15T13:53:43.237Z,1.40
2019-06-15T13:56:10.524Z,1.60
2019-06-15T13:58:37.694Z,1.50
2019-06-15T14:01:04.930Z,1.83
2019-06-15T14:03:32.085Z,1.40
2019-06-15T14:05:59.304Z,1.93
2019-06-15T14:08:26.548Z,1.60
2019-06-15T14:10:53.924Z,1.53
2019-06-15T14:13:21.434Z,1.57
2019-06-15T14:15:48.748Z,1.50
2019-06-15T14:18:15.934Z,1.70
2019-06-15T14:20:43.310Z,1.50
2019-06-15T14:23:10.575Z,1.73
2019-06-15T14:25:38.674Z,1.70
2019-06-15T14:28:05.885Z,1.37
2019-06-15T14:30:33.277Z,1.70
2019-06-15T14:33:00.471Z,1.50
2019-06-15T14:35:27.962Z,1.60
2019-06-15T14:37:55.088Z,2.33
2019-06-15T14:40:22.599Z,1.47
2019-06-15T14:42:49.829Z,1.50
2019-06-15T14:45:17.518Z,1.67
2019-06-15T14:47:44.670Z,1.43
2019-06-15T14:50:11.945Z,1.60
2019-06-15T14:52:39.148Z,1.50
2019-06-15T14:55:07.233Z,1.60
2019-06-15T14:57:36.128Z,1.93
2019-06-15T15:00:08.529Z,1.60
2019-06-15T15:02:37.227Z,1.50
2019-06-15T15:05:06.864Z,1.60
2019-06-15T15:07:36.589Z,1.77
2019-06-15T15:10:07.062Z,2.03
2019-06-15T15:12:33.695Z,1.60
2019-06-15T15:15:01.140Z,1.43
2019-06-15T15:17:28.695Z,2.10
2019-06-15T15:19:57.429Z,1.80
2019-06-15T15:22:26.764Z,1.87
2019-06-15T15:24:55.969Z,1.47
2019-06-15T15:27:23.105Z,1.60
2019-06-15T15:29:51.455Z,1.50
2019-06-15T15:32:27.431Z,1.50
2019-06-15T15:34:47.944Z,1.67
2019-06-15T15:37:15.927Z,1.50
2019-06-15T15:39:43.244Z,1.70
2019-06-15T15:42:10.455Z,1.70
2019-06-15T15:44:38.094Z,1.60
2019-06-15T15:47:07.082Z,1.50
2019-06-15T15:49:36.645Z,1.43
2019-06-15T15:52:04.125Z,1.50
2019-06-15T15:54:31.492Z,2.00
2019-06-15T15:56:58.833Z,1.70
2019-06-15T15:59:26.618Z,1.57
2019-06-15T16:01:53.808Z,1.73
2019-06-15T16:04:21.911Z,1.60
2019-06-15T16:06:49.226Z,1.90
2019-06-15T16:09:17.005Z,2.00
2019-06-15T16:11:46.293Z,1.63
2019-06-15T16:14:16.295Z,2.00
2019-06-15T16:16:42.795Z,1.73
2019-06-15T16:19:09.981Z,1.70
2019-06-15T16:21:37.493Z,1.67
2019-06-15T16:24:07.137Z,1.63
2019-06-15T16:26:33.842Z,1.80
2019-06-15T16:29:01.163Z,2.00
2019-06-15T16:31:29.260Z,2.07
2019-06-15T16:33:56.742Z,2.03
2019-06-15T16:36:24.043Z,3.27
2019-06-15T16:38:51.768Z,2.80
2019-06-15T16:41:18.978Z,4.17
2019-06-15T16:43:46.267Z,1.80
2019-06-15T16:46:13.460Z,1.80
2019-06-15T16:48:40.868Z,2.13
2019-06-15T16:51:08.048Z,1.90
2019-06-15T16:53:37.189Z,2.20
2019-06-15T16:56:06.121Z,1.87
2019-06-15T16:58:36.180Z,1.97
2019-06-15T17:01:02.943Z,2.10
2019-06-15T17:03:30.450Z,15.17
2019-06-15T17:05:57.640Z,2.50
2019-06-15T17:08:24.991Z,2.20
2019-06-15T17:10:53.099Z,2.03
2019-06-15T17:13:20.313Z,1.93
2019-06-15T17:15:47.823Z,1.90
2019-06-15T17:18:15.100Z,1.90
2019-06-15T17:20:47.197Z,1.80
2019-06-15T17:23:16.375Z,2.20
2019-06-15T17:25:43.443Z,2.13
2019-06-15T17:28:10.718Z,2.03
2019-06-15T17:30:37.894Z,2.40
2019-06-15T17:33:08.200Z,2.50
2019-06-15T17:35:36.157Z,1.80
2019-06-15T17:38:03.480Z,2.10
2019-06-15T17:40:30.551Z,2.17
2019-06-15T17:42:57.918Z,2.30
2019-06-15T17:45:26.667Z,2.00
2019-06-15T17:47:56.869Z,2.30
2019-06-15T17:50:29.679Z,2.23
2019-06-15T17:52:56.867Z,2.33
2019-06-15T17:55:26.787Z,2.10
2019-06-15T17:57:53.254Z,1.90
2019-06-15T18:00:20.949Z,2.80
2019-06-15T18:02:48.244Z,1.93
2019-06-15T18:05:17.978Z,2.00
2019-06-15T18:07:47.001Z,1.70
2019-06-15T18:10:16.011Z,2.23
2019-06-15T18:12:43.292Z,2.00
2019-06-15T18:15:10.771Z,2.40
2019-06-15T18:17:37.940Z,2.50
2019-06-15T18:20:06.756Z,2.50
2019-06-15T18:22:36.212Z,2.37
2019-06-15T18:25:06.417Z,2.57
2019-06-15T18:27:33.970Z,2.70
2019-06-15T18:30:01.132Z,2.27
2019-06-15T18:32:29.086Z,2.50
2019-06-15T18:34:56.621Z,2.30
2019-06-15T18:37:23.775Z,2.30
2019-06-15T18:39:51.056Z,3.13
2019-06-15T18:42:18.379Z,2.30
2019-06-15T18:44:47.774Z,2.23
2019-06-15T18:47:16.545Z,2.73
2019-06-15T18:49:43.998Z,3.00
2019-06-15T18:52:11.170Z,2.40
2019-06-15T18:54:38.333Z,2.60
2019-06-15T18:57:07.431Z,2.10
2019-06-15T18:59:36.625Z,2.83
2019-06-15T19:02:06.533Z,2.50
2019-06-15T19:04:33.281Z,2.13
2019-06-15T19:07:00.911Z,2.33
2019-06-15T19:09:27.989Z,2.70
2019-06-15T19:11:56.612Z,2.60
2019-06-15T19:14:23.945Z,2.63
2019-06-15T19:16:51.511Z,4.13
2019-06-15T19:19:18.821Z,2.63
2019-06-15T19:21:46.258Z,3.97
2019-06-15T19:24:16.574Z,3.97
2019-06-15T19:26:43.004Z,5.00
2019-06-15T19:29:10.877Z,4.50
2019-06-15T19:31:38.099Z,2.83
2019-06-15T19:34:06.785Z,2.73
2019-06-15T19:36:36.494Z,2.73
2019-06-15T19:39:06.261Z,3.30
2019-06-15T19:41:33.505Z,2.90
2019-06-15T19:44:00.716Z,2.73
2019-06-15T19:46:27.905Z,2.73
2019-06-15T19:48:56.033Z,3.30
2019-06-15T19:51:28.528Z,3.40
2019-06-15T19:53:53.039Z,2.80
2019-06-15T19:56:20.267Z,2.83
2019-06-15T19:58:47.480Z,2.50
2019-06-15T20:01:16.765Z,2.50
2019-06-15T20:03:46.333Z,2.83
2019-06-15T20:06:13.397Z,2.70
2019-06-15T20:08:40.717Z,3.00
2019-06-15T20:11:08.483Z,3.30
2019-06-15T20:13:37.077Z,3.67
2019-06-15T20:16:05.264Z,3.73
2019-06-15T20:18:33.654Z,3.97
2019-06-15T20:21:00.728Z,2.73
2019-06-15T20:23:28.886Z,3.43
2019-06-15T20:25:56.339Z,3.40
2019-06-15T20:28:23.552Z,3.37
2019-06-15T20:30:50.725Z,4.00
2019-06-15T20:33:17.956Z,4.37
2019-06-15T20:35:47.160Z,4.83
2019-06-15T20:38:16.082Z,3.90
2019-06-15T20:40:43.523Z,4.53
2019-06-15T20:43:10.634Z,4.40
2019-06-15T20:45:38.178Z,4.67
2019-06-15T20:48:06.776Z,5.30
2019-06-15T20:50:36.282Z,4.67
2019-06-15T20:53:05.851Z,5.10
2019-06-15T20:55:33.148Z,5.23
2019-06-15T20:58:00.487Z,6.17
2019-06-15T21:00:27.639Z,5.47
2019-06-15T21:02:56.323Z,5.50
2019-06-15T21:05:34.819Z,5.07
2019-06-15T21:07:52.908Z,5.40
2019-06-15T21:10:20.144Z,5.33
2019-06-15T21:12:47.703Z,5.10
2019-06-15T21:15:15.347Z,5.30
2019-06-15T21:17:42.572Z,4.70
2019-06-15T21:20:10.133Z,6.60
2019-06-15T21:22:37.672Z,10.13
2019-06-15T21:25:06.833Z,5.30
2019-06-15T21:27:36.658Z,5.60
2019-06-15T21:30:06.806Z,6.50
2019-06-15T21:32:33.805Z,5.17
2019-06-15T21:35:01.314Z,5.83
2019-06-15T21:37:29.497Z,5.20
2019-06-15T21:39:56.872Z,4.60
2019-06-15T21:42:26.470Z,6.00
2019-06-15T21:44:53.166Z,5.27
2019-06-15T21:47:20.574Z,5.83
2019-06-15T21:49:47.754Z,5.40
2019-06-15T21:52:16.667Z,5.97
2019-06-15T21:54:43.984Z,5.80
2019-06-15T21:57:11.683Z,6.70
2019-06-15T21:59:38.848Z,7.13
2019-06-15T22:02:07.067Z,6.90
2019-06-15T22:04:36.643Z,5.80
2019-06-15T22:07:06.271Z,7.10
2019-06-15T22:09:32.833Z,6.23
2019-06-15T22:11:59.896Z,6.73
2019-06-15T22:14:27.072Z,7.03
2019-06-15T22:16:56.738Z,6.77
2019-06-15T22:19:23.376Z,7.03
2019-06-15T22:21:51.263Z,8.40
2019-06-15T22:24:18.802Z,6.80
2019-06-15T22:26:46.731Z,6.70
2019-06-15T22:29:16.765Z,7.13
2019-06-15T22:31:43.787Z,6.20
2019-06-15T22:34:10.961Z,6.13
2019-06-15T22:36:38.259Z,6.40
2019-06-15T22:39:06.443Z,6.20
2019-06-15T22:41:36.089Z,6.40
2019-06-15T22:44:03.104Z,4.80
2019-06-15T22:46:30.523Z,5.30
2019-06-15T22:48:57.752Z,5.03
2019-06-15T22:51:27.325Z,5.20
2019-06-15T22:53:56.380Z,5.17
2019-06-15T22:56:23.113Z,6.00
2019-06-15T22:58:50.206Z,6.33
2019-06-15T23:01:17.411Z,5.47
2019-06-15T23:03:46.588Z,6.20
2019-06-15T23:06:15.971Z,5.27
2019-06-15T23:08:43.224Z,5.93
2019-06-15T23:11:10.475Z,6.10
2019-06-15T23:13:37.669Z,5.70
2019-06-15T23:16:04.945Z,6.40
2019-06-15T23:18:32.422Z,6.93
2019-06-15T23:20:59.601Z,5.60
2019-06-15T23:23:27.211Z,6.50
2019-06-15T23:25:56.647Z,8.07
2019-06-15T23:28:23.730Z,6.43
2019-06-15T23:30:51.234Z,6.20
2019-06-15T23:33:18.715Z,5.50
2019-06-15T23:35:52.047Z,6.50
2019-06-15T23:38:19.646Z,5.70
2019-06-15T23:40:47.556Z,6.40
2019-06-15T23:43:16.745Z,6.10
2019-06-15T23:45:43.955Z,5.07
2019-06-15T23:48:11.127Z,5.40
2019-06-15T23:50:38.418Z,4.70
2019-06-15T23:53:05.830Z,6.03
2019-06-15T23:55:33.093Z,4.53
2019-06-15T23:58:00.356Z,4.53
